sensor_id;sensor_type;location;lat;lon;timestamp;P1;durP1;ratioP1;P2;durP2;ratioP2
45420;SDS011;55462;47.042;8.292;2023-04-09T00:00:34;13.07;;;11.90;;
45420;SDS011;55462;47.042;8.292;2023-04-09T00:03:00;13.63;;;12.50;;
45420;SDS011;55462;47.042;8.292;2023-04-09T00:05:25;13.03;;;11.93;;
45420;SDS011;55462;47.042;8.292;2023-04-09T00:07:50;13.30;;;12.20;;
45420;SDS011;55462;47.042;8.292;2023-04-09T00:10:16;13.33;;;12.23;;
45420;SDS011;55462;47.042;8.292;2023-04-09T00:12:41;12.73;;;11.50;;
45420;SDS011;55462;47.042;8.292;2023-04-09T00:15:06;13.03;;;11.93;;
45420;SDS011;55462;47.042;8.292;2023-04-09T00:17:32;12.53;;;11.53;;
45420;SDS011;55462;47.042;8.292;2023-04-09T00:19:58;12.80;;;11.77;;
45420;SDS011;55462;47.042;8.292;2023-04-09T00:22:23;12.97;;;11.77;;
45420;SDS011;55462;47.042;8.292;2023-04-09T00:24:48;13.43;;;12.23;;
45420;SDS011;55462;47.042;8.292;2023-04-09T00:27:13;12.90;;;11.87;;
45420;SDS011;55462;47.042;8.292;2023-04-09T00:29:39;13.53;;;12.17;;
45420;SDS011;55462;47.042;8.292;2023-04-09T00:32:05;13.30;;;12.00;;
45420;SDS011;55462;47.042;8.292;2023-04-09T00:34:30;12.50;;;11.50;;
45420;SDS011;55462;47.042;8.292;2023-04-09T00:36:55;14.13;;;12.90;;
45420;SDS011;55462;47.042;8.292;2023-04-09T00:39:21;13.60;;;12.40;;
45420;SDS011;55462;47.042;8.292;2023-04-09T00:41:46;14.73;;;13.53;;
45420;SDS011;55462;47.042;8.292;2023-04-09T00:44:11;15.73;;;14.23;;
45420;SDS011;55462;47.042;8.292;2023-04-09T00:46:37;15.33;;;13.93;;
45420;SDS011;55462;47.042;8.292;2023-04-09T00:49:02;16.17;;;14.67;;
45420;SDS011;55462;47.042;8.292;2023-04-09T00:51:27;15.70;;;14.37;;
45420;SDS011;55462;47.042;8.292;2023-04-09T00:53:53;16.80;;;15.30;;
45420;SDS011;55462;47.042;8.292;2023-04-09T00:56:19;16.83;;;15.30;;
45420;SDS011;55462;47.042;8.292;2023-04-09T00:58:46;17.57;;;16.00;;
45420;SDS011;55462;47.042;8.292;2023-04-09T01:01:11;16.93;;;15.33;;
45420;SDS011;55462;47.042;8.292;2023-04-09T01:03:36;16.80;;;15.20;;
45420;SDS011;55462;47.042;8.292;2023-04-09T01:06:21;16.70;;;15.00;;
45420;SDS011;55462;47.042;8.292;2023-04-09T01:08:52;16.57;;;15.07;;
45420;SDS011;55462;47.042;8.292;2023-04-09T01:14:03;17.50;;;15.80;;
45420;SDS011;55462;47.042;8.292;2023-04-09T01:16:33;15.27;;;13.87;;
45420;SDS011;55462;47.042;8.292;2023-04-09T01:19:48;16.07;;;14.50;;
45420;SDS011;55462;47.042;8.292;2023-04-09T01:22:05;14.87;;;13.63;;
45420;SDS011;55462;47.042;8.292;2023-04-09T01:24:43;16.07;;;14.57;;
45420;SDS011;55462;47.042;8.292;2023-04-09T01:27:21;16.30;;;14.73;;
45420;SDS011;55462;47.042;8.292;2023-04-09T01:29:47;16.50;;;15.00;;
45420;SDS011;55462;47.042;8.292;2023-04-09T01:32:15;17.87;;;16.00;;
45420;SDS011;55462;47.042;8.292;2023-04-09T01:34:41;17.90;;;16.13;;
45420;SDS011;55462;47.042;8.292;2023-04-09T01:37:06;18.13;;;16.53;;
45420;SDS011;55462;47.042;8.292;2023-04-09T01:39:32;18.70;;;16.83;;
45420;SDS011;55462;47.042;8.292;2023-04-09T01:41:58;18.93;;;17.23;;
45420;SDS011;55462;47.042;8.292;2023-04-09T01:44:24;19.87;;;18.13;;
45420;SDS011;55462;47.042;8.292;2023-04-09T01:46:50;20.93;;;18.83;;
45420;SDS011;55462;47.042;8.292;2023-04-09T01:49:16;19.17;;;17.37;;
45420;SDS011;55462;47.042;8.292;2023-04-09T01:51:42;18.17;;;16.43;;
45420;SDS011;55462;47.042;8.292;2023-04-09T01:54:07;17.87;;;16.23;;
45420;SDS011;55462;47.042;8.292;2023-04-09T01:56:46;19.50;;;17.50;;
45420;SDS011;55462;47.042;8.292;2023-04-09T01:59:11;19.20;;;17.40;;
45420;SDS011;55462;47.042;8.292;2023-04-09T02:01:43;19.47;;;17.77;;
45420;SDS011;55462;47.042;8.292;2023-04-09T02:04:13;19.57;;;17.50;;
45420;SDS011;55462;47.042;8.292;2023-04-09T02:09:19;18.70;;;17.00;;
45420;SDS011;55462;47.042;8.292;2023-04-09T02:11:45;19.93;;;18.13;;
45420;SDS011;55462;47.042;8.292;2023-04-09T02:14:12;19.13;;;17.40;;
45420;SDS011;55462;47.042;8.292;2023-04-09T02:16:37;18.43;;;16.60;;
45420;SDS011;55462;47.042;8.292;2023-04-09T02:19:04;18.13;;;16.53;;
45420;SDS011;55462;47.042;8.292;2023-04-09T02:21:29;18.63;;;16.83;;
45420;SDS011;55462;47.042;8.292;2023-04-09T02:23:55;19.30;;;17.60;;
45420;SDS011;55462;47.042;8.292;2023-04-09T02:26:21;19.90;;;18.13;;
45420;SDS011;55462;47.042;8.292;2023-04-09T02:28:46;18.43;;;16.77;;
45420;SDS011;55462;47.042;8.292;2023-04-09T02:31:12;21.00;;;19.00;;
45420;SDS011;55462;47.042;8.292;2023-04-09T02:33:37;19.63;;;17.83;;
45420;SDS011;55462;47.042;8.292;2023-04-09T02:36:03;20.40;;;18.40;;
45420;SDS011;55462;47.042;8.292;2023-04-09T02:38:29;18.57;;;16.60;;
45420;SDS011;55462;47.042;8.292;2023-04-09T02:40:55;18.03;;;16.43;;
45420;SDS011;55462;47.042;8.292;2023-04-09T02:43:20;19.67;;;17.80;;
45420;SDS011;55462;47.042;8.292;2023-04-09T02:45:45;19.07;;;17.40;;
45420;SDS011;55462;47.042;8.292;2023-04-09T02:48:10;19.57;;;17.67;;
45420;SDS011;55462;47.042;8.292;2023-04-09T02:50:36;19.83;;;18.03;;
45420;SDS011;55462;47.042;8.292;2023-04-09T02:53:01;19.83;;;18.00;;
45420;SDS011;55462;47.042;8.292;2023-04-09T02:55:26;18.43;;;16.63;;
45420;SDS011;55462;47.042;8.292;2023-04-09T02:57:52;20.03;;;18.27;;
45420;SDS011;55462;47.042;8.292;2023-04-09T03:00:17;19.70;;;17.90;;
45420;SDS011;55462;47.042;8.292;2023-04-09T03:02:42;20.43;;;18.47;;
45420;SDS011;55462;47.042;8.292;2023-04-09T03:05:08;19.53;;;17.83;;
45420;SDS011;55462;47.042;8.292;2023-04-09T03:07:33;21.00;;;19.00;;
45420;SDS011;55462;47.042;8.292;2023-04-09T03:09:58;19.50;;;17.70;;
45420;SDS011;55462;47.042;8.292;2023-04-09T03:12:24;19.20;;;17.50;;
45420;SDS011;55462;47.042;8.292;2023-04-09T03:14:49;20.13;;;18.33;;
45420;SDS011;55462;47.042;8.292;2023-04-09T03:17:14;21.43;;;19.43;;
45420;SDS011;55462;47.042;8.292;2023-04-09T03:19:40;20.70;;;18.53;;
45420;SDS011;55462;47.042;8.292;2023-04-09T03:22:05;21.17;;;19.13;;
45420;SDS011;55462;47.042;8.292;2023-04-09T03:24:31;19.93;;;18.03;;
45420;SDS011;55462;47.042;8.292;2023-04-09T03:26:57;20.50;;;18.60;;
45420;SDS011;55462;47.042;8.292;2023-04-09T03:29:22;21.23;;;19.33;;
45420;SDS011;55462;47.042;8.292;2023-04-09T03:31:47;20.80;;;18.90;;
45420;SDS011;55462;47.042;8.292;2023-04-09T03:34:13;19.40;;;17.40;;
45420;SDS011;55462;47.042;8.292;2023-04-09T03:36:38;20.23;;;18.23;;
45420;SDS011;55462;47.042;8.292;2023-04-09T03:39:03;20.33;;;18.43;;
45420;SDS011;55462;47.042;8.292;2023-04-09T03:41:29;20.07;;;18.20;;
45420;SDS011;55462;47.042;8.292;2023-04-09T03:43:54;21.40;;;19.13;;
45420;SDS011;55462;47.042;8.292;2023-04-09T03:46:20;20.43;;;18.40;;
45420;SDS011;55462;47.042;8.292;2023-04-09T03:48:45;20.80;;;18.93;;
45420;SDS011;55462;47.042;8.292;2023-04-09T03:51:11;20.43;;;18.57;;
45420;SDS011;55462;47.042;8.292;2023-04-09T03:53:40;20.83;;;18.83;;
45420;SDS011;55462;47.042;8.292;2023-04-09T03:56:06;20.13;;;18.33;;
45420;SDS011;55462;47.042;8.292;2023-04-09T03:58:31;20.83;;;18.93;;
45420;SDS011;55462;47.042;8.292;2023-04-09T04:00:57;21.93;;;19.80;;
45420;SDS011;55462;47.042;8.292;2023-04-09T04:03:22;21.27;;;19.20;;
45420;SDS011;55462;47.042;8.292;2023-04-09T04:05:47;20.93;;;19.03;;
45420;SDS011;55462;47.042;8.292;2023-04-09T04:08:13;20.50;;;18.63;;
45420;SDS011;55462;47.042;8.292;2023-04-09T04:10:38;20.53;;;18.63;;
45420;SDS011;55462;47.042;8.292;2023-04-09T04:13:05;21.37;;;19.40;;
45420;SDS011;55462;47.042;8.292;2023-04-09T04:15:30;21.40;;;18.47;;
45420;SDS011;55462;47.042;8.292;2023-04-09T04:17:56;20.73;;;18.83;;
45420;SDS011;55462;47.042;8.292;2023-04-09T04:20:21;19.63;;;17.83;;
45420;SDS011;55462;47.042;8.292;2023-04-09T04:22:46;20.97;;;18.93;;
45420;SDS011;55462;47.042;8.292;2023-04-09T04:25:12;19.63;;;17.63;;
45420;SDS011;55462;47.042;8.292;2023-04-09T04:27:40;20.57;;;18.67;;
45420;SDS011;55462;47.042;8.292;2023-04-09T04:30:06;22.20;;;20.20;;
45420;SDS011;55462;47.042;8.292;2023-04-09T04:32:33;22.00;;;19.90;;
45420;SDS011;55462;47.042;8.292;2023-04-09T04:34:58;21.53;;;19.63;;
45420;SDS011;55462;47.042;8.292;2023-04-09T04:37:24;21.53;;;19.53;;
45420;SDS011;55462;47.042;8.292;2023-04-09T04:39:49;21.13;;;19.23;;
45420;SDS011;55462;47.042;8.292;2023-04-09T04:42:15;22.67;;;20.50;;
45420;SDS011;55462;47.042;8.292;2023-04-09T04:44:40;21.50;;;19.37;;
45420;SDS011;55462;47.042;8.292;2023-04-09T04:47:06;20.20;;;18.30;;
45420;SDS011;55462;47.042;8.292;2023-04-09T04:49:31;22.53;;;20.33;;
45420;SDS011;55462;47.042;8.292;2023-04-09T04:51:56;22.07;;;19.97;;
45420;SDS011;55462;47.042;8.292;2023-04-09T04:54:22;22.97;;;20.67;;
45420;SDS011;55462;47.042;8.292;2023-04-09T04:56:47;21.50;;;19.50;;
45420;SDS011;55462;47.042;8.292;2023-04-09T04:59:12;20.33;;;18.43;;
45420;SDS011;55462;47.042;8.292;2023-04-09T05:01:38;20.97;;;18.97;;
45420;SDS011;55462;47.042;8.292;2023-04-09T05:04:03;21.43;;;19.43;;
45420;SDS011;55462;47.042;8.292;2023-04-09T05:06:28;20.57;;;18.77;;
45420;SDS011;55462;47.042;8.292;2023-04-09T05:08:54;21.70;;;19.60;;
45420;SDS011;55462;47.042;8.292;2023-04-09T05:11:22;20.73;;;18.83;;
45420;SDS011;55462;47.042;8.292;2023-04-09T05:13:48;21.13;;;19.10;;
45420;SDS011;55462;47.042;8.292;2023-04-09T05:16:17;21.20;;;19.30;;
45420;SDS011;55462;47.042;8.292;2023-04-09T05:18:43;20.87;;;18.97;;
45420;SDS011;55462;47.042;8.292;2023-04-09T05:21:08;20.53;;;18.60;;
45420;SDS011;55462;47.042;8.292;2023-04-09T05:23:33;22.13;;;19.93;;
45420;SDS011;55462;47.042;8.292;2023-04-09T05:25:59;20.10;;;18.30;;
45420;SDS011;55462;47.042;8.292;2023-04-09T05:28:24;20.87;;;18.60;;
45420;SDS011;55462;47.042;8.292;2023-04-09T05:30:49;20.93;;;19.03;;
45420;SDS011;55462;47.042;8.292;2023-04-09T05:33:15;20.93;;;18.83;;
45420;SDS011;55462;47.042;8.292;2023-04-09T05:35:40;20.23;;;18.40;;
45420;SDS011;55462;47.042;8.292;2023-04-09T05:38:05;19.60;;;17.80;;
45420;SDS011;55462;47.042;8.292;2023-04-09T05:40:31;21.87;;;19.60;;
45420;SDS011;55462;47.042;8.292;2023-04-09T05:42:56;20.73;;;18.83;;
45420;SDS011;55462;47.042;8.292;2023-04-09T05:45:21;21.23;;;19.23;;
45420;SDS011;55462;47.042;8.292;2023-04-09T05:47:47;21.53;;;19.53;;
45420;SDS011;55462;47.042;8.292;2023-04-09T05:50:12;21.10;;;19.00;;
45420;SDS011;55462;47.042;8.292;2023-04-09T05:52:37;21.23;;;19.13;;
45420;SDS011;55462;47.042;8.292;2023-04-09T05:55:03;21.30;;;19.30;;
45420;SDS011;55462;47.042;8.292;2023-04-09T05:57:30;19.97;;;18.07;;
45420;SDS011;55462;47.042;8.292;2023-04-09T05:59:55;20.87;;;18.97;;
45420;SDS011;55462;47.042;8.292;2023-04-09T06:02:21;21.73;;;19.63;;
45420;SDS011;55462;47.042;8.292;2023-04-09T06:04:46;21.67;;;19.67;;
45420;SDS011;55462;47.042;8.292;2023-04-09T06:07:11;20.90;;;18.90;;
45420;SDS011;55462;47.042;8.292;2023-04-09T06:09:37;19.77;;;18.00;;
45420;SDS011;55462;47.042;8.292;2023-04-09T06:12:02;21.03;;;19.10;;
45420;SDS011;55462;47.042;8.292;2023-04-09T06:14:28;21.13;;;19.20;;
45420;SDS011;55462;47.042;8.292;2023-04-09T06:16:57;21.27;;;19.20;;
45420;SDS011;55462;47.042;8.292;2023-04-09T06:19:23;20.23;;;18.27;;
45420;SDS011;55462;47.042;8.292;2023-04-09T06:21:48;19.53;;;17.67;;
45420;SDS011;55462;47.042;8.292;2023-04-09T06:24:13;21.03;;;18.97;;
45420;SDS011;55462;47.042;8.292;2023-04-09T06:26:39;20.67;;;18.53;;
45420;SDS011;55462;47.042;8.292;2023-04-09T06:29:04;20.93;;;19.03;;
45420;SDS011;55462;47.042;8.292;2023-04-09T06:31:29;19.57;;;17.67;;
45420;SDS011;55462;47.042;8.292;2023-04-09T06:33:54;20.70;;;18.80;;
45420;SDS011;55462;47.042;8.292;2023-04-09T06:36:20;19.60;;;17.87;;
45420;SDS011;55462;47.042;8.292;2023-04-09T06:38:45;20.20;;;18.30;;
45420;SDS011;55462;47.042;8.292;2023-04-09T06:41:10;20.80;;;18.90;;
45420;SDS011;55462;47.042;8.292;2023-04-09T06:43:36;19.30;;;17.50;;
45420;SDS011;55462;47.042;8.292;2023-04-09T06:46:02;19.90;;;17.97;;
45420;SDS011;55462;47.042;8.292;2023-04-09T06:48:27;19.90;;;18.10;;
45420;SDS011;55462;47.042;8.292;2023-04-09T06:50:52;20.70;;;18.70;;
45420;SDS011;55462;47.042;8.292;2023-04-09T06:53:18;19.87;;;18.07;;
45420;SDS011;55462;47.042;8.292;2023-04-09T06:55:43;20.40;;;18.63;;
45420;SDS011;55462;47.042;8.292;2023-04-09T06:58:09;21.07;;;19.17;;
45420;SDS011;55462;47.042;8.292;2023-04-09T07:00:35;20.53;;;18.63;;
45420;SDS011;55462;47.042;8.292;2023-04-09T07:03:00;21.20;;;19.10;;
45420;SDS011;55462;47.042;8.292;2023-04-09T07:05:25;22.20;;;20.20;;
45420;SDS011;55462;47.042;8.292;2023-04-09T07:07:51;21.33;;;19.33;;
45420;SDS011;55462;47.042;8.292;2023-04-09T07:10:16;21.53;;;19.53;;
45420;SDS011;55462;47.042;8.292;2023-04-09T07:12:41;20.47;;;18.67;;
45420;SDS011;55462;47.042;8.292;2023-04-09T07:15:07;21.48;;;19.38;;
45420;SDS011;55462;47.042;8.292;2023-04-09T07:17:33;23.33;;;19.97;;
45420;SDS011;55462;47.042;8.292;2023-04-09T07:19:58;21.93;;;19.90;;
45420;SDS011;55462;47.042;8.292;2023-04-09T07:22:24;22.50;;;20.33;;
45420;SDS011;55462;47.042;8.292;2023-04-09T07:24:51;21.33;;;19.13;;
45420;SDS011;55462;47.042;8.292;2023-04-09T07:27:20;21.03;;;18.90;;
45420;SDS011;55462;47.042;8.292;2023-04-09T07:29:45;19.70;;;17.90;;
45420;SDS011;55462;47.042;8.292;2023-04-09T07:32:10;20.67;;;18.83;;
45420;SDS011;55462;47.042;8.292;2023-04-09T07:34:36;22.53;;;20.53;;
45420;SDS011;55462;47.042;8.292;2023-04-09T07:37:01;19.77;;;17.97;;
45420;SDS011;55462;47.042;8.292;2023-04-09T07:39:27;20.33;;;18.40;;
45420;SDS011;55462;47.042;8.292;2023-04-09T07:41:52;19.90;;;18.10;;
45420;SDS011;55462;47.042;8.292;2023-04-09T07:44:17;20.70;;;18.53;;
45420;SDS011;55462;47.042;8.292;2023-04-09T07:46:42;19.33;;;17.63;;
45420;SDS011;55462;47.042;8.292;2023-04-09T07:49:08;21.02;;;19.05;;
45420;SDS011;55462;47.042;8.292;2023-04-09T07:51:33;20.53;;;18.73;;
45420;SDS011;55462;47.042;8.292;2023-04-09T07:53:58;20.30;;;18.42;;
45420;SDS011;55462;47.042;8.292;2023-04-09T07:56:24;20.30;;;18.42;;
45420;SDS011;55462;47.042;8.292;2023-04-09T07:58:49;19.97;;;18.17;;
45420;SDS011;55462;47.042;8.292;2023-04-09T08:01:15;19.50;;;17.73;;
45420;SDS011;55462;47.042;8.292;2023-04-09T08:03:40;19.77;;;17.97;;
45420;SDS011;55462;47.042;8.292;2023-04-09T08:06:06;18.90;;;17.30;;
45420;SDS011;55462;47.042;8.292;2023-04-09T08:08:32;19.55;;;17.75;;
45420;SDS011;55462;47.042;8.292;2023-04-09T08:10:57;19.60;;;17.83;;
45420;SDS011;55462;47.042;8.292;2023-04-09T08:13:23;19.50;;;17.70;;
45420;SDS011;55462;47.042;8.292;2023-04-09T08:15:51;18.75;;;17.05;;
45420;SDS011;55462;47.042;8.292;2023-04-09T08:18:16;19.43;;;17.73;;
45420;SDS011;55462;47.042;8.292;2023-04-09T08:20:42;18.30;;;16.47;;
45420;SDS011;55462;47.042;8.292;2023-04-09T08:23:08;17.75;;;16.10;;
45420;SDS011;55462;47.042;8.292;2023-04-09T08:25:34;18.60;;;16.88;;
45420;SDS011;55462;47.042;8.292;2023-04-09T08:28:00;16.63;;;15.02;;
45420;SDS011;55462;47.042;8.292;2023-04-09T08:30:25;18.02;;;16.45;;
45420;SDS011;55462;47.042;8.292;2023-04-09T08:32:50;17.88;;;16.27;;
45420;SDS011;55462;47.042;8.292;2023-04-09T08:35:16;16.25;;;14.75;;
45420;SDS011;55462;47.042;8.292;2023-04-09T08:37:41;16.23;;;14.73;;
45420;SDS011;55462;47.042;8.292;2023-04-09T08:40:07;15.90;;;14.50;;
45420;SDS011;55462;47.042;8.292;2023-04-09T08:42:33;17.35;;;15.45;;
45420;SDS011;55462;47.042;8.292;2023-04-09T08:45:02;16.10;;;14.70;;
45420;SDS011;55462;47.042;8.292;2023-04-09T08:47:28;16.50;;;15.07;;
45420;SDS011;55462;47.042;8.292;2023-04-09T08:49:53;18.05;;;16.33;;
45420;SDS011;55462;47.042;8.292;2023-04-09T08:52:19;15.68;;;14.38;;
45420;SDS011;55462;47.042;8.292;2023-04-09T08:54:54;15.38;;;13.98;;
45420;SDS011;55462;47.042;8.292;2023-04-09T08:57:20;14.85;;;13.55;;
45420;SDS011;55462;47.042;8.292;2023-04-09T08:59:45;16.67;;;15.07;;
45420;SDS011;55462;47.042;8.292;2023-04-09T09:02:10;16.13;;;14.82;;
45420;SDS011;55462;47.042;8.292;2023-04-09T09:04:46;14.63;;;13.32;;
45420;SDS011;55462;47.042;8.292;2023-04-09T09:07:12;14.98;;;13.57;;
45420;SDS011;55462;47.042;8.292;2023-04-09T09:09:50;14.55;;;13.15;;
45420;SDS011;55462;47.042;8.292;2023-04-09T09:14:55;13.95;;;12.75;;
45420;SDS011;55462;47.042;8.292;2023-04-09T09:17:21;13.13;;;12.02;;
45420;SDS011;55462;47.042;8.292;2023-04-09T09:19:46;13.43;;;12.32;;
45420;SDS011;55462;47.042;8.292;2023-04-09T09:22:11;13.88;;;12.68;;
45420;SDS011;55462;47.042;8.292;2023-04-09T09:27:15;14.45;;;13.05;;
45420;SDS011;55462;47.042;8.292;2023-04-09T09:29:55;14.18;;;12.88;;
45420;SDS011;55462;47.042;8.292;2023-04-09T09:32:21;15.10;;;13.70;;
45420;SDS011;55462;47.042;8.292;2023-04-09T09:34:56;15.45;;;14.15;;
45420;SDS011;55462;47.042;8.292;2023-04-09T09:37:28;13.43;;;12.23;;
45420;SDS011;55462;47.042;8.292;2023-04-09T09:39:54;12.73;;;11.70;;
45420;SDS011;55462;47.042;8.292;2023-04-09T09:42:20;13.70;;;12.48;;
45420;SDS011;55462;47.042;8.292;2023-04-09T09:44:45;13.85;;;12.55;;
45420;SDS011;55462;47.042;8.292;2023-04-09T09:47:11;12.20;;;11.10;;
45420;SDS011;55462;47.042;8.292;2023-04-09T09:49:39;13.38;;;12.30;;
45420;SDS011;55462;47.042;8.292;2023-04-09T09:52:08;13.52;;;12.13;;
45420;SDS011;55462;47.042;8.292;2023-04-09T09:54:38;13.13;;;12.02;;
45420;SDS011;55462;47.042;8.292;2023-04-09T09:57:06;12.68;;;11.57;;
45420;SDS011;55462;47.042;8.292;2023-04-09T09:59:36;12.85;;;11.77;;
45420;SDS011;55462;47.042;8.292;2023-04-09T10:02:08;11.95;;;10.90;;
45420;SDS011;55462;47.042;8.292;2023-04-09T10:04:42;12.90;;;11.70;;
45420;SDS011;55462;47.042;8.292;2023-04-09T10:07:08;12.82;;;11.73;;
45420;SDS011;55462;47.042;8.292;2023-04-09T10:09:36;11.70;;;10.70;;
45420;SDS011;55462;47.042;8.292;2023-04-09T10:12:03;12.88;;;11.77;;
45420;SDS011;55462;47.042;8.292;2023-04-09T10:14:31;12.10;;;11.10;;
45420;SDS011;55462;47.042;8.292;2023-04-09T10:16:57;12.30;;;11.23;;
45420;SDS011;55462;47.042;8.292;2023-04-09T10:19:22;11.82;;;10.82;;
45420;SDS011;55462;47.042;8.292;2023-04-09T10:21:52;12.95;;;11.80;;
45420;SDS011;55462;47.042;8.292;2023-04-09T10:24:28;12.38;;;11.35;;
45420;SDS011;55462;47.042;8.292;2023-04-09T10:26:56;12.13;;;11.13;;
45420;SDS011;55462;47.042;8.292;2023-04-09T10:29:28;11.75;;;10.75;;
45420;SDS011;55462;47.042;8.292;2023-04-09T10:34:31;12.02;;;11.02;;
45420;SDS011;55462;47.042;8.292;2023-04-09T10:36:59;12.15;;;11.05;;
45420;SDS011;55462;47.042;8.292;2023-04-09T10:39:30;12.48;;;11.48;;
45420;SDS011;55462;47.042;8.292;2023-04-09T10:41:56;11.68;;;10.77;;
45420;SDS011;55462;47.042;8.292;2023-04-09T10:44:23;12.13;;;11.02;;
45420;SDS011;55462;47.042;8.292;2023-04-09T10:46:55;11.55;;;10.63;;
45420;SDS011;55462;47.042;8.292;2023-04-09T10:49:21;11.60;;;10.70;;
45420;SDS011;55462;47.042;8.292;2023-04-09T10:51:49;11.95;;;11.02;;
45420;SDS011;55462;47.042;8.292;2023-04-09T10:59:31;11.55;;;10.65;;
45420;SDS011;55462;47.042;8.292;2023-04-09T11:01:57;11.38;;;10.48;;
45420;SDS011;55462;47.042;8.292;2023-04-09T11:04:22;11.38;;;10.48;;
45420;SDS011;55462;47.042;8.292;2023-04-09T11:06:53;11.30;;;10.40;;
45420;SDS011;55462;47.042;8.292;2023-04-09T11:09:20;11.18;;;10.30;;
45420;SDS011;55462;47.042;8.292;2023-04-09T11:11:50;11.70;;;10.80;;
45420;SDS011;55462;47.042;8.292;2023-04-09T11:14:20;10.93;;;10.02;;
45420;SDS011;55462;47.042;8.292;2023-04-09T11:16:48;11.70;;;10.63;;
45420;SDS011;55462;47.042;8.292;2023-04-09T11:19:13;11.63;;;10.70;;
45420;SDS011;55462;47.042;8.292;2023-04-09T11:21:42;9.88;;;9.18;;
45420;SDS011;55462;47.042;8.292;2023-04-09T11:24:11;11.35;;;10.45;;
45420;SDS011;55462;47.042;8.292;2023-04-09T11:26:36;10.45;;;9.65;;
45420;SDS011;55462;47.042;8.292;2023-04-09T11:29:08;10.23;;;9.05;;
45420;SDS011;55462;47.042;8.292;2023-04-09T11:31:34;10.80;;;10.00;;
45420;SDS011;55462;47.042;8.292;2023-04-09T11:34:00;10.40;;;9.55;;
45420;SDS011;55462;47.042;8.292;2023-04-09T11:36:26;10.68;;;9.77;;
45420;SDS011;55462;47.042;8.292;2023-04-09T11:38:52;11.25;;;10.30;;
45420;SDS011;55462;47.042;8.292;2023-04-09T11:41:31;11.73;;;10.82;;
45420;SDS011;55462;47.042;8.292;2023-04-09T11:44:03;11.10;;;10.30;;
45420;SDS011;55462;47.042;8.292;2023-04-09T11:46:30;11.30;;;10.38;;
45420;SDS011;55462;47.042;8.292;2023-04-09T11:49:02;10.07;;;9.27;;
45420;SDS011;55462;47.042;8.292;2023-04-09T11:51:28;10.65;;;9.85;;
45420;SDS011;55462;47.042;8.292;2023-04-09T11:54:00;10.23;;;9.43;;
45420;SDS011;55462;47.042;8.292;2023-04-09T11:56:30;9.85;;;9.00;;
45420;SDS011;55462;47.042;8.292;2023-04-09T11:58:56;9.63;;;8.93;;
45420;SDS011;55462;47.042;8.292;2023-04-09T12:01:22;9.82;;;9.02;;
45420;SDS011;55462;47.042;8.292;2023-04-09T12:03:53;10.57;;;9.77;;
45420;SDS011;55462;47.042;8.292;2023-04-09T12:06:19;10.70;;;9.70;;
45420;SDS011;55462;47.042;8.292;2023-04-09T12:08:47;9.80;;;9.10;;
45420;SDS011;55462;47.042;8.292;2023-04-09T12:11:26;10.98;;;9.98;;
45420;SDS011;55462;47.042;8.292;2023-04-09T12:13:57;9.23;;;8.50;;
45420;SDS011;55462;47.042;8.292;2023-04-09T12:16:28;9.23;;;8.52;;
45420;SDS011;55462;47.042;8.292;2023-04-09T12:19:06;10.52;;;8.82;;
45420;SDS011;55462;47.042;8.292;2023-04-09T12:21:48;8.60;;;8.00;;
45420;SDS011;55462;47.042;8.292;2023-04-09T12:24:15;10.73;;;9.90;;
45420;SDS011;55462;47.042;8.292;2023-04-09T12:26:41;9.85;;;9.02;;
45420;SDS011;55462;47.042;8.292;2023-04-09T12:29:09;9.25;;;8.55;;
45420;SDS011;55462;47.042;8.292;2023-04-09T12:31:34;8.73;;;8.13;;
45420;SDS011;55462;47.042;8.292;2023-04-09T12:34:00;8.73;;;7.97;;
45420;SDS011;55462;47.042;8.292;2023-04-09T12:36:26;8.40;;;7.80;;
45420;SDS011;55462;47.042;8.292;2023-04-09T12:38:51;9.90;;;9.10;;
45420;SDS011;55462;47.042;8.292;2023-04-09T12:41:16;9.77;;;8.98;;
45420;SDS011;55462;47.042;8.292;2023-04-09T12:43:42;9.35;;;8.65;;
45420;SDS011;55462;47.042;8.292;2023-04-09T12:46:07;7.80;;;7.20;;
45420;SDS011;55462;47.042;8.292;2023-04-09T12:48:33;8.25;;;7.65;;
45420;SDS011;55462;47.042;8.292;2023-04-09T12:50:59;7.53;;;7.03;;
45420;SDS011;55462;47.042;8.292;2023-04-09T12:53:24;7.32;;;6.80;;
45420;SDS011;55462;47.042;8.292;2023-04-09T12:55:49;8.60;;;8.00;;
45420;SDS011;55462;47.042;8.292;2023-04-09T12:58:15;8.05;;;7.45;;
45420;SDS011;55462;47.042;8.292;2023-04-09T13:00:40;7.93;;;7.30;;
45420;SDS011;55462;47.042;8.292;2023-04-09T13:03:05;7.80;;;7.20;;
45420;SDS011;55462;47.042;8.292;2023-04-09T13:05:31;9.15;;;8.45;;
45420;SDS011;55462;47.042;8.292;2023-04-09T13:07:59;8.10;;;7.47;;
45420;SDS011;55462;47.042;8.292;2023-04-09T13:10:24;7.40;;;6.80;;
45420;SDS011;55462;47.042;8.292;2023-04-09T13:12:50;6.80;;;6.28;;
45420;SDS011;55462;47.042;8.292;2023-04-09T13:15:15;7.80;;;7.20;;
45420;SDS011;55462;47.042;8.292;2023-04-09T13:17:41;8.30;;;7.60;;
45420;SDS011;55462;47.042;8.292;2023-04-09T13:20:06;7.45;;;6.85;;
45420;SDS011;55462;47.042;8.292;2023-04-09T13:22:32;7.32;;;6.82;;
45420;SDS011;55462;47.042;8.292;2023-04-09T13:24:57;6.60;;;6.18;;
45420;SDS011;55462;47.042;8.292;2023-04-09T13:27:23;6.82;;;6.32;;
45420;SDS011;55462;47.042;8.292;2023-04-09T13:29:48;7.32;;;6.82;;
45420;SDS011;55462;47.042;8.292;2023-04-09T13:32:13;7.38;;;6.85;;
45420;SDS011;55462;47.042;8.292;2023-04-09T13:34:39;6.88;;;6.38;;
45420;SDS011;55462;47.042;8.292;2023-04-09T13:37:05;7.72;;;7.03;;
45420;SDS011;55462;47.042;8.292;2023-04-09T13:39:30;7.20;;;6.65;;
45420;SDS011;55462;47.042;8.292;2023-04-09T13:41:56;7.53;;;6.93;;
45420;SDS011;55462;47.042;8.292;2023-04-09T13:44:21;7.15;;;6.57;;
45420;SDS011;55462;47.042;8.292;2023-04-09T13:46:48;6.90;;;6.40;;
45420;SDS011;55462;47.042;8.292;2023-04-09T13:49:13;6.95;;;6.30;;
45420;SDS011;55462;47.042;8.292;2023-04-09T13:51:38;6.90;;;6.40;;
45420;SDS011;55462;47.042;8.292;2023-04-09T13:54:04;6.97;;;6.47;;
45420;SDS011;55462;47.042;8.292;2023-04-09T13:56:29;7.13;;;6.00;;
45420;SDS011;55462;47.042;8.292;2023-04-09T13:58:55;6.60;;;6.18;;
45420;SDS011;55462;47.042;8.292;2023-04-09T14:01:20;6.35;;;5.85;;
45420;SDS011;55462;47.042;8.292;2023-04-09T14:03:46;7.50;;;6.90;;
45420;SDS011;55462;47.042;8.292;2023-04-09T14:06:11;6.60;;;6.10;;
45420;SDS011;55462;47.042;8.292;2023-04-09T14:08:37;7.28;;;6.68;;
45420;SDS011;55462;47.042;8.292;2023-04-09T14:11:02;6.93;;;6.32;;
45420;SDS011;55462;47.042;8.292;2023-04-09T14:13:28;6.95;;;6.35;;
45420;SDS011;55462;47.042;8.292;2023-04-09T14:15:54;6.22;;;5.82;;
45420;SDS011;55462;47.042;8.292;2023-04-09T14:18:19;5.93;;;5.53;;
45420;SDS011;55462;47.042;8.292;2023-04-09T14:20:44;6.00;;;5.60;;
45420;SDS011;55462;47.042;8.292;2023-04-09T14:23:10;5.75;;;5.30;;
45420;SDS011;55462;47.042;8.292;2023-04-09T14:25:35;6.25;;;5.75;;
45420;SDS011;55462;47.042;8.292;2023-04-09T14:28:01;6.28;;;5.80;;
45420;SDS011;55462;47.042;8.292;2023-04-09T14:30:27;6.05;;;5.55;;
45420;SDS011;55462;47.042;8.292;2023-04-09T14:32:52;5.80;;;5.35;;
45420;SDS011;55462;47.042;8.292;2023-04-09T14:35:17;5.55;;;5.15;;
45420;SDS011;55462;47.042;8.292;2023-04-09T14:37:43;5.40;;;5.00;;
45420;SDS011;55462;47.042;8.292;2023-04-09T14:40:08;5.20;;;4.90;;